createdAt,value
2022-07-25T00:00:26.091Z,14.57
2022-07-25T00:02:52.579Z,14.55
2022-07-25T00:05:19.179Z,14.62
2022-07-25T00:07:45.819Z,14.54
2022-07-25T00:10:12.562Z,14.58
2022-07-25T00:12:39.188Z,14.54
2022-07-25T00:15:06.320Z,14.49
2022-07-25T00:17:32.895Z,14.55
2022-07-25T00:20:00.748Z,14.51
2022-07-25T00:22:27.230Z,14.57
2022-07-25T00:24:53.705Z,14.55
2022-07-25T00:27:20.176Z,14.53
2022-07-25T00:29:47.024Z,14.48
2022-07-25T00:32:13.726Z,14.44
2022-07-25T00:34:40.211Z,14.42
2022-07-25T00:37:06.892Z,14.38
2022-07-25T00:39:33.426Z,14.45
2022-07-25T00:42:03.361Z,14.47
2022-07-25T00:44:32.613Z,14.51
2022-07-25T00:46:59.574Z,14.41
2022-07-25T00:49:27.137Z,14.35
2022-07-25T00:51:54.392Z,14.43
2022-07-25T00:54:21.925Z,14.32
2022-07-25T00:56:49.504Z,14.38
2022-07-25T00:59:17.127Z,14.35
2022-07-25T01:01:45.566Z,14.29
2022-07-25T01:04:12.207Z,14.27
2022-07-25T01:06:38.744Z,14.29
2022-07-25T01:09:05.362Z,14.25
2022-07-25T01:11:31.837Z,14.24
2022-07-25T01:13:58.521Z,14.18
2022-07-25T01:16:25.119Z,14.18
2022-07-25T01:18:51.953Z,14.11
2022-07-25T01:21:18.569Z,14.08
2022-07-25T01:23:45.221Z,14.16
2022-07-25T01:26:11.714Z,14.10
2022-07-25T01:28:38.263Z,14.09
2022-07-25T01:31:04.833Z,14.03
2022-07-25T01:33:31.454Z,14.06
2022-07-25T01:35:57.966Z,13.94
2022-07-25T01:38:24.435Z,13.96
2022-07-25T01:40:51.605Z,13.97
2022-07-25T01:43:18.156Z,13.98
2022-07-25T01:45:44.750Z,13.98
2022-07-25T01:48:11.423Z,14.02
2022-07-25T01:50:38.143Z,13.96
2022-07-25T01:53:05.461Z,13.99
2022-07-25T01:55:31.951Z,13.97
2022-07-25T01:57:59.172Z,13.97
2022-07-25T02:00:26.380Z,13.92
2022-07-25T02:03:12.832Z,13.91
2022-07-25T02:05:39.436Z,13.92
2022-07-25T02:08:06.003Z,13.90
2022-07-25T02:10:32.991Z,13.84
2022-07-25T02:13:00.975Z,13.82
2022-07-25T02:15:27.554Z,13.77
2022-07-25T02:17:54.080Z,13.76
2022-07-25T02:20:20.598Z,13.71
2022-07-25T02:22:47.084Z,13.78
2022-07-25T02:25:13.541Z,13.72
2022-07-25T02:27:40.250Z,13.64
2022-07-25T02:30:07.535Z,13.66
2022-07-25T02:32:33.995Z,13.64
2022-07-25T02:35:00.458Z,13.69
2022-07-25T02:37:27.163Z,13.70
2022-07-25T02:39:53.677Z,13.62
2022-07-25T02:42:20.142Z,13.66
2022-07-25T02:44:46.685Z,13.56
2022-07-25T02:47:13.404Z,13.50
2022-07-25T02:49:39.861Z,13.57
2022-07-25T02:52:06.357Z,13.51
2022-07-25T02:54:32.822Z,13.46
2022-07-25T02:56:59.301Z,13.42
2022-07-25T02:59:26.066Z,13.49
2022-07-25T03:01:59.156Z,13.50
2022-07-25T03:04:25.816Z,13.56
2022-07-25T03:06:52.467Z,13.55
2022-07-25T03:09:19.421Z,13.54
2022-07-25T03:11:45.962Z,13.52
2022-07-25T03:14:12.517Z,13.58
2022-07-25T03:16:39.010Z,13.54
2022-07-25T03:19:10.172Z,13.46
2022-07-25T03:21:37.655Z,13.48
2022-07-25T03:24:04.401Z,13.57
2022-07-25T03:26:31.223Z,13.55
2022-07-25T03:28:57.739Z,13.59
2022-07-25T03:31:24.634Z,13.58
2022-07-25T03:33:51.166Z,13.53
2022-07-25T03:36:17.714Z,13.56
2022-07-25T03:38:44.246Z,13.58
2022-07-25T03:41:11.692Z,13.63
2022-07-25T03:43:38.194Z,13.68
2022-07-25T03:46:04.827Z,13.65
2022-07-25T03:48:31.407Z,13.72
2022-07-25T03:50:58.879Z,13.73
2022-07-25T03:53:27.682Z,13.82
2022-07-25T03:55:54.140Z,13.78
2022-07-25T03:58:20.716Z,13.82
2022-07-25T04:00:48.752Z,13.86
2022-07-25T04:03:15.356Z,13.90
2022-07-25T04:05:47.120Z,13.88
2022-07-25T04:08:14.237Z,13.96
2022-07-25T04:10:40.720Z,14.04
2022-07-25T04:13:08.306Z,14.09
2022-07-25T04:15:34.847Z,14.21
2022-07-25T04:18:01.347Z,14.32
2022-07-25T04:20:28.741Z,14.35
2022-07-25T04:22:55.927Z,14.44
2022-07-25T04:25:22.485Z,14.50
2022-07-25T04:27:49.008Z,14.52
2022-07-25T04:30:23.947Z,14.65
2022-07-25T04:32:51.791Z,14.73
2022-07-25T04:35:18.253Z,14.82
2022-07-25T04:37:44.705Z,14.93
2022-07-25T04:40:11.767Z,14.99
2022-07-25T04:42:38.288Z,15.03
2022-07-25T04:45:05.239Z,15.16
2022-07-25T04:47:31.736Z,15.21
2022-07-25T04:49:58.233Z,15.35
2022-07-25T04:52:24.756Z,15.58
2022-07-25T04:54:51.288Z,15.77
2022-07-25T04:57:17.761Z,15.82
2022-07-25T04:59:44.513Z,15.96
2022-07-25T05:02:11.672Z,16.00
2022-07-25T05:04:42.189Z,16.08
2022-07-25T05:07:11.708Z,16.21
2022-07-25T05:09:38.324Z,16.34
2022-07-25T05:12:04.917Z,16.53
2022-07-25T05:14:31.422Z,16.69
2022-07-25T05:16:57.874Z,16.78
2022-07-25T05:19:26.042Z,16.96
2022-07-25T05:21:53.065Z,16.90
2022-07-25T05:24:19.591Z,16.91
2022-07-25T05:26:46.072Z,17.14
2022-07-25T05:29:12.623Z,17.31
2022-07-25T05:31:39.125Z,17.37
2022-07-25T05:34:06.099Z,17.53
2022-07-25T05:36:33.189Z,17.70
2022-07-25T05:39:00.568Z,17.69
2022-07-25T05:41:27.308Z,17.82
2022-07-25T05:43:53.876Z,17.90
2022-07-25T05:46:20.567Z,17.83
2022-07-25T05:48:47.122Z,17.88
2022-07-25T05:51:13.690Z,18.02
2022-07-25T05:53:40.238Z,18.07
2022-07-25T05:56:07.031Z,18.31
2022-07-25T05:58:33.566Z,18.32
2022-07-25T06:01:00.127Z,18.40
2022-07-25T06:03:26.874Z,18.50
2022-07-25T06:05:55.474Z,18.65
2022-07-25T06:08:22.603Z,18.63
2022-07-25T06:10:49.262Z,18.73
2022-07-25T06:13:15.756Z,18.89
2022-07-25T06:15:42.251Z,18.98
2022-07-25T06:18:08.850Z,19.10
2022-07-25T06:20:37.376Z,19.19
2022-07-25T06:23:04.920Z,19.33
2022-07-25T06:25:31.387Z,19.36
2022-07-25T06:27:58.400Z,19.49
2022-07-25T06:30:24.939Z,19.59
2022-07-25T06:32:51.462Z,19.76
2022-07-25T06:35:18.596Z,19.97
2022-07-25T06:37:45.356Z,20.17
2022-07-25T06:40:12.186Z,20.34
2022-07-25T06:42:44.014Z,20.51
2022-07-25T06:45:11.196Z,20.81
2022-07-25T06:47:39.312Z,20.97
2022-07-25T06:50:11.278Z,21.12
2022-07-25T06:52:38.582Z,21.37
2022-07-25T06:55:06.482Z,21.51
2022-07-25T06:57:33.107Z,21.73
2022-07-25T06:59:59.642Z,21.91
2022-07-25T07:02:27.142Z,22.10
2022-07-25T07:04:53.616Z,22.29
2022-07-25T07:07:20.084Z,22.39
2022-07-25T07:09:46.566Z,22.58
2022-07-25T07:12:13.044Z,22.82
2022-07-25T07:14:39.621Z,22.99
2022-07-25T07:17:06.130Z,23.12
2022-07-25T07:19:32.793Z,23.27
2022-07-25T07:21:59.458Z,23.26
2022-07-25T07:24:25.982Z,23.40
2022-07-25T07:26:54.231Z,23.48
2022-07-25T07:29:21.045Z,23.55
2022-07-25T07:31:47.735Z,23.69
2022-07-25T07:34:16.611Z,23.82
2022-07-25T07:36:43.225Z,23.86
2022-07-25T07:39:09.960Z,24.02
2022-07-25T07:41:36.581Z,24.14
2022-07-25T07:44:03.191Z,24.15
2022-07-25T07:46:29.736Z,24.32
2022-07-25T07:48:56.341Z,24.39
2022-07-25T07:51:22.949Z,24.37
2022-07-25T07:54:07.777Z,24.51
2022-07-25T07:56:34.264Z,24.56
2022-07-25T07:59:00.736Z,24.65
2022-07-25T08:01:27.274Z,24.73
2022-07-25T08:03:53.870Z,24.91
2022-07-25T08:06:20.388Z,25.01
2022-07-25T08:08:46.854Z,25.04
2022-07-25T08:11:13.518Z,25.02
2022-07-25T08:13:40.143Z,24.97
2022-07-25T08:16:07.125Z,25.19
2022-07-25T08:18:33.751Z,25.37
2022-07-25T08:21:06.235Z,25.48
2022-07-25T08:23:38.610Z,25.58
2022-07-25T08:26:05.806Z,25.67
2022-07-25T08:28:32.489Z,25.76
2022-07-25T08:30:59.131Z,25.87
2022-07-25T08:33:26.230Z,25.96
2022-07-25T08:35:54.802Z,26.00
2022-07-25T08:38:23.764Z,26.11
2022-07-25T08:40:50.858Z,26.14
2022-07-25T08:43:19.037Z,26.28
2022-07-25T08:45:48.036Z,26.24
2022-07-25T08:48:18.166Z,26.26
2022-07-25T08:50:46.171Z,26.35
2022-07-25T08:53:32.573Z,26.38
2022-07-25T08:55:59.935Z,26.43
2022-07-25T08:58:26.471Z,26.42
2022-07-25T09:00:52.978Z,26.45
2022-07-25T09:03:19.545Z,26.44
2022-07-25T09:05:46.272Z,26.47
2022-07-25T09:08:17.520Z,26.49
2022-07-25T09:10:49.318Z,26.55
2022-07-25T09:13:17.244Z,26.51
2022-07-25T09:16:00.303Z,26.53
2022-07-25T09:18:27.670Z,26.68
2022-07-25T09:21:00.588Z,26.75
2022-07-25T09:23:35.387Z,26.97
2022-07-25T09:26:07.586Z,27.04
2022-07-25T09:28:42.515Z,27.17
2022-07-25T09:31:09.793Z,27.26
2022-07-25T09:33:47.575Z,27.33
2022-07-25T09:36:14.735Z,27.40
2022-07-25T09:38:59.607Z,27.41
2022-07-25T09:41:37.372Z,27.50
2022-07-25T09:44:05.230Z,27.52
2022-07-25T09:46:33.292Z,27.56
2022-07-25T09:49:00.989Z,27.69
2022-07-25T09:51:28.576Z,27.74
2022-07-25T09:53:55.116Z,27.83
2022-07-25T09:56:21.673Z,27.81
2022-07-25T09:58:48.197Z,27.85
2022-07-25T10:01:20.540Z,28.00
2022-07-25T10:04:08.344Z,28.01
2022-07-25T10:06:41.013Z,27.91
2022-07-25T10:09:12.418Z,27.96
2022-07-25T10:11:39.360Z,28.00
2022-07-25T10:14:13.070Z,28.02
2022-07-25T10:16:47.237Z,28.09
2022-07-25T10:19:14.405Z,28.09
2022-07-25T10:21:41.006Z,28.15
2022-07-25T10:26:39.847Z,28.21
2022-07-25T10:29:11.288Z,28.17
2022-07-25T10:31:47.643Z,28.24
2022-07-25T10:34:27.221Z,28.21
2022-07-25T10:36:57.031Z,28.24
2022-07-25T10:39:23.950Z,28.32
2022-07-25T10:41:55.755Z,28.40
2022-07-25T10:44:22.278Z,28.32
2022-07-25T10:46:50.165Z,28.44
2022-07-25T10:49:31.026Z,28.45
2022-07-25T10:52:01.416Z,28.44
2022-07-25T10:54:33.741Z,28.40
2022-07-25T10:57:00.412Z,28.37
2022-07-25T10:59:35.984Z,28.39
2022-07-25T11:02:04.426Z,28.30
2022-07-25T11:04:31.345Z,28.25
2022-07-25T11:06:57.978Z,28.25
2022-07-25T11:09:28.619Z,28.23
2022-07-25T11:11:58.294Z,28.36
2022-07-25T11:14:25.977Z,28.52
2022-07-25T11:16:55.171Z,28.62
2022-07-25T11:19:29.584Z,28.72
2022-07-25T11:21:58.542Z,28.78
2022-07-25T11:24:43.246Z,28.86
2022-07-25T11:27:12.953Z,28.98
2022-07-25T11:29:40.151Z,29.08
2022-07-25T11:32:09.108Z,29.13
2022-07-25T11:34:39.200Z,29.15
2022-07-25T11:37:08.258Z,29.06
2022-07-25T11:39:37.326Z,29.10
2022-07-25T11:42:10.714Z,29.14
2022-07-25T11:44:42.975Z,29.07
2022-07-25T11:47:33.391Z,29.10
2022-07-25T11:50:04.630Z,29.14
2022-07-25T11:52:31.060Z,29.15
2022-07-25T11:54:59.478Z,29.13
2022-07-25T11:57:29.130Z,29.09
2022-07-25T11:59:56.224Z,29.18
2022-07-25T12:02:22.847Z,29.31
2022-07-25T12:05:01.329Z,29.28
2022-07-25T12:07:54.958Z,29.26
2022-07-25T12:10:33.421Z,29.26
2022-07-25T12:13:04.181Z,29.35
2022-07-25T12:15:33.703Z,29.27
2022-07-25T12:18:01.846Z,29.27
2022-07-25T12:20:30.659Z,29.18
2022-07-25T12:23:01.851Z,29.19
2022-07-25T12:25:31.174Z,29.11
2022-07-25T12:28:01.635Z,29.14
2022-07-25T12:30:29.679Z,29.18
2022-07-25T12:32:58.688Z,29.20
2022-07-25T12:35:25.447Z,29.18
2022-07-25T12:37:52.869Z,29.17
2022-07-25T12:40:20.185Z,29.24
2022-07-25T12:42:47.628Z,29.19
2022-07-25T12:45:17.938Z,29.13
2022-07-25T12:47:45.922Z,29.08
2022-07-25T12:50:13.726Z,29.05
2022-07-25T12:52:40.999Z,29.05
2022-07-25T12:55:12.356Z,29.06
2022-07-25T12:57:39.537Z,28.99
2022-07-25T13:00:09.274Z,29.01
2022-07-25T13:02:35.996Z,29.12
2022-07-25T13:05:03.503Z,29.16
2022-07-25T13:07:30.107Z,29.15
2022-07-25T13:09:56.588Z,29.28
2022-07-25T13:12:24.077Z,29.36
2022-07-25T13:14:51.238Z,29.24
2022-07-25T13:17:20.460Z,29.37
2022-07-25T13:19:50.077Z,29.37
2022-07-25T13:22:16.664Z,29.29
2022-07-25T13:24:43.586Z,29.30
2022-07-25T13:27:10.070Z,29.35
2022-07-25T13:29:36.619Z,29.29
2022-07-25T13:32:03.225Z,29.23
2022-07-25T13:34:30.882Z,29.09
2022-07-25T13:36:58.338Z,29.10
2022-07-25T13:39:24.879Z,29.02
2022-07-25T13:41:51.350Z,28.94
2022-07-25T13:44:17.846Z,28.87
2022-07-25T13:46:46.342Z,28.83
2022-07-25T13:49:13.197Z,28.86
2022-07-25T13:51:39.774Z,28.88
2022-07-25T13:54:06.319Z,28.89
2022-07-25T13:56:33.200Z,28.92
2022-07-25T13:59:00.029Z,28.94
2022-07-25T14:01:28.578Z,28.92
2022-07-25T14:03:55.464Z,28.86
2022-07-25T14:06:22.186Z,28.83
2022-07-25T14:08:48.723Z,28.74
2022-07-25T14:11:15.230Z,28.76
2022-07-25T14:13:43.519Z,28.69
2022-07-25T14:16:10.478Z,28.71
2022-07-25T14:18:37.071Z,28.69
2022-07-25T14:21:03.801Z,28.59
2022-07-25T14:23:30.442Z,28.66
2022-07-25T14:25:58.438Z,28.61
2022-07-25T14:28:25.174Z,28.59
2022-07-25T14:30:52.326Z,28.61
2022-07-25T14:33:18.897Z,28.59
2022-07-25T14:35:45.421Z,28.58
2022-07-25T14:38:11.937Z,28.75
2022-07-25T14:40:38.482Z,28.72
2022-07-25T14:43:04.972Z,28.74
2022-07-25T14:45:31.575Z,28.83
2022-07-25T14:47:58.339Z,28.88
2022-07-25T14:50:24.917Z,28.89
2022-07-25T14:52:51.400Z,28.82
2022-07-25T14:55:18.729Z,28.83
2022-07-25T14:57:45.305Z,28.90
2022-07-25T15:00:12.433Z,28.91
2022-07-25T15:02:38.929Z,28.87
2022-07-25T15:05:05.835Z,28.95
2022-07-25T15:07:32.348Z,29.09
2022-07-25T15:09:58.814Z,29.10
2022-07-25T15:12:25.395Z,29.15
2022-07-25T15:14:51.855Z,29.14
2022-07-25T15:17:18.377Z,29.12
2022-07-25T15:19:44.854Z,29.07
2022-07-25T15:22:11.428Z,29.15
2022-07-25T15:24:57.656Z,29.11
2022-07-25T15:27:24.673Z,28.98
2022-07-25T15:29:51.170Z,28.87
2022-07-25T15:32:17.814Z,28.70
2022-07-25T15:34:44.319Z,28.23
2022-07-25T15:37:11.732Z,28.15
2022-07-25T15:39:38.245Z,28.21
2022-07-25T15:42:04.836Z,28.14
2022-07-25T15:44:32.664Z,27.71
2022-07-25T15:46:59.319Z,27.14
2022-07-25T15:49:26.032Z,26.82
2022-07-25T15:51:52.668Z,26.20
2022-07-25T15:54:19.164Z,26.02
2022-07-25T15:56:45.748Z,25.61
2022-07-25T15:59:13.207Z,25.46
2022-07-25T16:01:39.889Z,25.26
2022-07-25T16:04:06.660Z,25.38
2022-07-25T16:06:33.265Z,24.90
2022-07-25T16:08:59.907Z,24.75
2022-07-25T16:11:26.736Z,24.48
2022-07-25T16:13:53.871Z,24.50
2022-07-25T16:16:23.350Z,24.41
2022-07-25T16:18:49.904Z,24.41
2022-07-25T16:21:17.072Z,24.41
2022-07-25T16:23:45.428Z,24.42
2022-07-25T16:26:13.131Z,24.55
2022-07-25T16:28:40.722Z,24.61
2022-07-25T16:31:07.390Z,24.66
2022-07-25T16:33:34.121Z,24.90
2022-07-25T16:36:00.765Z,24.84
2022-07-25T16:38:28.832Z,24.82
2022-07-25T16:40:55.433Z,24.81
2022-07-25T16:43:21.927Z,24.79
2022-07-25T16:45:48.525Z,24.72
2022-07-25T16:48:15.073Z,24.67
2022-07-25T16:50:41.562Z,24.62
2022-07-25T16:53:08.049Z,24.59
2022-07-25T16:55:34.649Z,24.61
2022-07-25T16:58:01.123Z,24.64
2022-07-25T17:00:27.674Z,24.54
2022-07-25T17:02:56.091Z,24.50
2022-07-25T17:05:22.697Z,24.47
2022-07-25T17:07:57.054Z,24.70
2022-07-25T17:10:25.802Z,24.68
2022-07-25T17:12:52.265Z,24.56
2022-07-25T17:15:18.844Z,24.63
2022-07-25T17:17:45.420Z,24.45
2022-07-25T17:20:12.239Z,24.34
2022-07-25T17:22:38.912Z,24.26
2022-07-25T17:25:06.512Z,24.30
2022-07-25T17:27:33.127Z,24.35
2022-07-25T17:29:59.685Z,24.35
2022-07-25T17:32:29.773Z,24.30
2022-07-25T17:34:57.225Z,24.38
2022-07-25T17:37:24.331Z,24.39
2022-07-25T17:39:51.047Z,24.47
2022-07-25T17:42:22.236Z,24.58
2022-07-25T17:44:52.816Z,24.57
2022-07-25T17:47:20.195Z,24.63
2022-07-25T17:49:48.317Z,24.63
2022-07-25T17:52:16.051Z,24.63
2022-07-25T17:54:42.630Z,24.59
2022-07-25T17:57:09.963Z,24.37
2022-07-25T17:59:39.834Z,24.36
2022-07-25T18:02:06.435Z,24.18
2022-07-25T18:04:32.990Z,24.10
2022-07-25T18:06:59.577Z,24.00
2022-07-25T18:09:26.093Z,24.06
2022-07-25T18:11:54.551Z,24.05
2022-07-25T18:14:21.577Z,24.15
2022-07-25T18:16:48.159Z,24.16
2022-07-25T18:19:14.631Z,24.16
2022-07-25T18:21:41.212Z,24.10
2022-07-25T18:24:08.224Z,24.13
2022-07-25T18:26:34.910Z,24.28
2022-07-25T18:29:01.634Z,24.44
2022-07-25T18:31:28.534Z,24.36
2022-07-25T18:33:55.153Z,24.54
2022-07-25T18:36:21.934Z,24.63
2022-07-25T18:38:48.557Z,24.65
2022-07-25T18:41:30.849Z,24.84
2022-07-25T18:43:57.572Z,24.95
2022-07-25T18:46:24.613Z,25.09
2022-07-25T18:48:51.849Z,25.00
2022-07-25T18:51:19.459Z,24.96
2022-07-25T18:53:48.224Z,24.80
2022-07-25T18:56:16.341Z,24.71
2022-07-25T18:58:43.149Z,24.55
2022-07-25T19:01:10.342Z,24.41
2022-07-25T19:03:37.581Z,24.28
2022-07-25T19:06:06.815Z,24.01
2022-07-25T19:08:33.331Z,23.74
2022-07-25T19:11:00.049Z,23.80
2022-07-25T19:13:48.329Z,23.48
2022-07-25T19:16:13.326Z,23.43
2022-07-25T19:18:41.686Z,23.17
2022-07-25T19:21:08.192Z,23.10
2022-07-25T19:23:34.965Z,22.92
2022-07-25T19:26:02.469Z,22.85
2022-07-25T19:28:29.443Z,22.78
2022-07-25T19:30:57.055Z,22.65
2022-07-25T19:33:24.314Z,22.56
2022-07-25T19:35:51.019Z,22.54
2022-07-25T19:38:19.504Z,22.35
2022-07-25T19:40:46.080Z,22.15
2022-07-25T19:43:12.562Z,22.11
2022-07-25T19:45:39.371Z,21.96
2022-07-25T19:48:06.955Z,21.90
2022-07-25T19:50:34.127Z,21.88
2022-07-25T19:53:01.391Z,21.80
2022-07-25T19:55:28.534Z,21.70
2022-07-25T19:57:55.226Z,21.46
2022-07-25T20:00:22.035Z,21.51
2022-07-25T20:02:48.758Z,21.37
2022-07-25T20:05:17.118Z,21.37
2022-07-25T20:07:43.686Z,21.44
2022-07-25T20:10:10.705Z,21.30
2022-07-25T20:12:37.843Z,21.21
2022-07-25T20:15:04.968Z,21.18
2022-07-25T20:17:31.467Z,21.12
2022-07-25T20:19:58.002Z,21.10
2022-07-25T20:22:24.539Z,21.19
2022-07-25T20:24:51.077Z,21.10
2022-07-25T20:27:17.743Z,21.03
2022-07-25T20:29:44.399Z,20.98
2022-07-25T20:32:10.916Z,21.03
2022-07-25T20:34:37.550Z,20.86
2022-07-25T20:37:04.056Z,20.79
2022-07-25T20:39:30.549Z,20.74
2022-07-25T20:41:57.125Z,20.66
2022-07-25T20:44:23.653Z,20.67
2022-07-25T20:46:51.505Z,20.58
2022-07-25T20:49:18.080Z,20.62
2022-07-25T20:51:44.671Z,20.59
2022-07-25T20:54:11.264Z,20.53
2022-07-25T20:56:37.828Z,20.51
2022-07-25T20:59:04.583Z,20.54
2022-07-25T21:01:31.323Z,20.55
2022-07-25T21:03:57.916Z,20.54
2022-07-25T21:06:27.090Z,20.45
2022-07-25T21:08:54.102Z,20.49
2022-07-25T21:11:21.118Z,20.51
2022-07-25T21:13:47.681Z,20.35
2022-07-25T21:16:14.622Z,20.28
2022-07-25T21:18:41.352Z,20.30
2022-07-25T21:21:12.119Z,20.22
2022-07-25T21:23:38.949Z,20.11
2022-07-25T21:26:05.719Z,20.04
2022-07-25T21:28:32.216Z,19.92
2022-07-25T21:30:58.796Z,19.73
2022-07-25T21:33:25.318Z,19.80
2022-07-25T21:35:53.758Z,19.84
2022-07-25T21:38:26.826Z,19.62
2022-07-25T21:40:56.635Z,19.70
2022-07-25T21:43:23.380Z,19.67
2022-07-25T21:45:50.224Z,19.63
2022-07-25T21:48:16.705Z,19.65
2022-07-25T21:50:48.685Z,19.58
2022-07-25T21:53:16.926Z,19.50
2022-07-25T21:55:43.423Z,19.37
2022-07-25T21:58:09.977Z,19.42
2022-07-25T22:00:41.709Z,19.32
2022-07-25T22:03:11.945Z,19.24
2022-07-25T22:05:40.048Z,19.26
2022-07-25T22:08:06.614Z,19.07
2022-07-25T22:10:33.565Z,19.12
2022-07-25T22:13:00.233Z,19.04
2022-07-25T22:15:26.847Z,18.93
2022-07-25T22:17:53.419Z,18.76
2022-07-25T22:20:20.007Z,18.79
2022-07-25T22:22:49.729Z,18.87
2022-07-25T22:25:17.138Z,18.64
2022-07-25T22:27:43.829Z,18.70
2022-07-25T22:30:16.182Z,19.00
2022-07-25T22:32:45.946Z,18.66
2022-07-25T22:35:12.501Z,18.63
2022-07-25T22:37:39.034Z,18.68
2022-07-25T22:40:06.186Z,18.67
2022-07-25T22:42:32.636Z,18.57
2022-07-25T22:44:59.139Z,18.61
2022-07-25T22:47:25.620Z,18.56
2022-07-25T22:49:52.071Z,18.48
2022-07-25T22:52:18.592Z,18.52
2022-07-25T22:54:45.131Z,18.37
2022-07-25T22:57:11.666Z,18.43
2022-07-25T22:59:38.134Z,18.36
2022-07-25T23:02:04.817Z,18.34
2022-07-25T23:04:31.448Z,18.33
2022-07-25T23:06:57.996Z,18.36
2022-07-25T23:09:24.535Z,18.20
2022-07-25T23:12:00.304Z,18.12
2022-07-25T23:14:26.903Z,18.01
2022-07-25T23:17:11.855Z,17.94
2022-07-25T23:19:38.393Z,17.82
2022-07-25T23:22:04.999Z,17.76
2022-07-25T23:24:34.494Z,17.78
2022-07-25T23:27:04.463Z,17.80
2022-07-25T23:29:30.955Z,17.75
2022-07-25T23:31:57.464Z,17.75
2022-07-25T23:34:23.985Z,17.80
2022-07-25T23:36:50.583Z,17.82
2022-07-25T23:39:17.150Z,17.60
2022-07-25T23:41:43.739Z,17.57
2022-07-25T23:44:11.048Z,17.64
2022-07-25T23:46:38.603Z,17.70
2022-07-25T23:49:06.524Z,17.74
2022-07-25T23:51:33.344Z,17.69
2022-07-25T23:53:59.971Z,17.63
2022-07-25T23:56:26.514Z,17.62
2022-07-25T23:58:53.137Z,17.68
